Terminal Aerodrome Forecast
Issued by NWS

Current Version | Previous Version | Text Only | Print | Product List | Glossary On
Versions: 1 2 3 4 5 6 7 8 9 10 11 12 13 14 15 16 17 18
000
FTUS43 KTOP 041133
TAFMHK
TAF
KMHK 041133Z 0412/0512 00000KT 5SM BR SKC
     FM041300 15006KT P6SM SKC
     FM050900 14005KT P6SM BKN120=

USA.gov is the U.S. government's official web portal to all federal, state and local government web resources and services.